createdAt,value
2019-03-02T00:00:17.050Z,9.87
2019-03-02T00:02:49.203Z,16.83
2019-03-02T00:05:24.300Z,15.37
2019-03-02T00:07:53.726Z,16.80
2019-03-02T00:10:24.594Z,15.63
2019-03-02T00:12:55.371Z,15.37
2019-03-02T00:15:27.035Z,15.50
2019-03-02T00:17:59.981Z,12.73
2019-03-02T00:20:30.730Z,11.53
2019-03-02T00:23:01.421Z,13.97
2019-03-02T00:25:34.110Z,16.40
2019-03-02T00:28:04.641Z,12.30
2019-03-02T00:30:35.928Z,9.63
2019-03-02T00:33:06.755Z,13.57
2019-03-02T00:35:39.805Z,12.67
2019-03-02T00:38:10.339Z,12.20
2019-03-02T00:40:41.312Z,13.40
2019-03-02T00:43:12.027Z,8.97
2019-03-02T00:45:45.883Z,11.90
2019-03-02T00:48:15.658Z,12.13
2019-03-02T00:50:46.751Z,14.73
2019-03-02T00:53:17.392Z,7.80
2019-03-02T00:55:47.910Z,8.93
2019-03-02T00:58:18.489Z,9.07
2019-03-02T01:00:50.015Z,14.80
2019-03-02T01:03:21.279Z,11.73
2019-03-02T01:05:51.905Z,9.00
2019-03-02T01:11:04.456Z,9.13
2019-03-02T01:13:35.173Z,10.87
2019-03-02T01:16:05.913Z,7.63
2019-03-02T01:18:38.780Z,9.77
2019-03-02T01:21:09.113Z,13.47
2019-03-02T01:23:39.828Z,9.80
2019-03-02T01:26:10.491Z,10.87
2019-03-02T01:28:41.668Z,11.70
2019-03-02T01:31:13.306Z,11.23
2019-03-02T01:33:44.133Z,15.07
2019-03-02T01:36:14.732Z,10.03
2019-03-02T01:38:45.724Z,9.53
2019-03-02T01:41:18.858Z,10.57
2019-03-02T01:43:49.725Z,6.73
2019-03-02T01:46:20.649Z,10.13
2019-03-02T01:48:51.396Z,4.80
2019-03-02T01:51:23.203Z,11.87
2019-03-02T01:53:55.562Z,7.20
2019-03-02T01:56:26.309Z,9.13
2019-03-02T01:58:57.073Z,7.50
2019-03-02T02:01:27.859Z,6.27
2019-03-02T02:03:58.592Z,10.23
2019-03-02T02:06:29.314Z,9.03
2019-03-02T02:09:01.691Z,5.70
2019-03-02T02:11:33.856Z,7.00
2019-03-02T02:14:05.780Z,8.80
2019-03-02T02:16:38.890Z,6.80
2019-03-02T02:19:08.933Z,7.20
2019-03-02T02:21:39.674Z,9.77
2019-03-02T02:24:10.240Z,9.47
2019-03-02T02:26:43.907Z,7.07
2019-03-02T02:29:13.246Z,7.80
2019-03-02T02:31:45.105Z,5.53
2019-03-02T02:34:21.462Z,5.60
2019-03-02T02:36:53.237Z,9.00
2019-03-02T02:39:21.146Z,6.37
2019-03-02T02:41:51.768Z,7.03
2019-03-02T02:44:22.457Z,7.23
2019-03-02T02:46:53.130Z,8.57
2019-03-02T02:49:23.972Z,9.93
2019-03-02T02:51:54.561Z,10.80
2019-03-02T02:54:25.101Z,15.20
2019-03-02T02:57:03.160Z,11.13
2019-03-02T02:59:34.039Z,10.10
2019-03-02T03:02:06.273Z,8.77
2019-03-02T03:04:38.283Z,12.33
2019-03-02T03:07:12.427Z,10.37
2019-03-02T03:09:50.962Z,10.67
2019-03-02T03:12:24.455Z,10.70
2019-03-02T03:14:58.518Z,9.83
2019-03-02T03:17:28.055Z,8.37
2019-03-02T03:19:59.325Z,10.77
2019-03-02T03:25:19.434Z,11.23
2019-03-02T03:27:51.816Z,9.90
2019-03-02T03:30:33.800Z,11.13
2019-03-02T03:32:58.636Z,7.90
2019-03-02T03:35:26.871Z,10.33
2019-03-02T03:37:57.470Z,8.17
2019-03-02T03:40:28.052Z,9.67
2019-03-02T03:43:03.347Z,7.60
2019-03-02T03:45:30.958Z,9.80
2019-03-02T03:48:01.611Z,6.53
2019-03-02T03:50:32.156Z,7.53
2019-03-02T03:53:02.921Z,6.20
2019-03-02T03:55:34.656Z,5.03
2019-03-02T03:58:05.274Z,5.47
2019-03-02T04:00:38.582Z,5.53
2019-03-02T04:03:09.084Z,5.23
2019-03-02T04:05:42.141Z,8.60
2019-03-02T04:08:14.217Z,10.73
2019-03-02T04:10:44.914Z,12.87
2019-03-02T04:13:15.470Z,9.43
2019-03-02T04:15:46.045Z,10.40
2019-03-02T04:18:55.097Z,11.00
2019-03-02T04:21:36.072Z,12.23
2019-03-02T04:24:06.945Z,12.33
2019-03-02T04:26:38.567Z,11.70
2019-03-02T04:29:11.225Z,11.13
2019-03-02T04:31:44.170Z,11.57
2019-03-02T04:34:20.205Z,11.37
2019-03-02T04:36:47.445Z,10.30
2019-03-02T04:39:18.274Z,16.60
2019-03-02T04:41:49.000Z,10.27
2019-03-02T04:44:19.704Z,8.50
2019-03-02T04:46:51.352Z,11.70
2019-03-02T04:49:22.673Z,9.87
2019-03-02T04:51:53.261Z,9.00
2019-03-02T04:54:23.818Z,11.17
2019-03-02T04:56:55.603Z,10.73
2019-03-02T04:59:26.260Z,8.87
2019-03-02T05:01:56.792Z,9.30
2019-03-02T05:04:28.787Z,10.50
2019-03-02T05:07:00.426Z,9.90
2019-03-02T05:09:31.023Z,11.83
2019-03-02T05:12:01.552Z,11.90
2019-03-02T05:14:32.112Z,13.00
2019-03-02T05:17:03.505Z,12.93
2019-03-02T05:19:35.170Z,14.57
2019-03-02T05:22:06.628Z,16.77
2019-03-02T05:24:40.536Z,13.00
2019-03-02T05:27:09.281Z,12.10
2019-03-02T05:29:39.841Z,11.80
2019-03-02T05:32:12.520Z,8.97
2019-03-02T05:34:42.537Z,14.00
2019-03-02T05:37:13.094Z,9.47
2019-03-02T05:39:43.656Z,9.33
2019-03-02T05:42:14.597Z,8.73
2019-03-02T05:44:45.076Z,13.53
2019-03-02T05:47:15.572Z,10.70
2019-03-02T05:49:46.134Z,12.17
2019-03-02T07:04:34.510Z,17.87
2019-03-02T07:07:06.199Z,16.07
2019-03-02T07:09:36.799Z,11.07
2019-03-02T07:12:09.423Z,13.67
2019-03-02T07:14:39.505Z,5.97
2019-03-02T07:17:10.048Z,6.87
2019-03-02T07:19:48.602Z,5.80
2019-03-02T07:22:19.298Z,6.30
2019-03-02T07:24:49.913Z,5.17
2019-03-02T07:27:20.376Z,3.37
2019-03-02T07:29:53.613Z,5.70
2019-03-02T07:32:23.305Z,2.63
2019-03-02T07:34:54.060Z,2.03
2019-03-02T07:37:24.680Z,1.60
2019-03-02T07:39:55.219Z,2.60
2019-03-02T07:42:25.708Z,1.27
2019-03-02T07:44:58.519Z,0.70
2019-03-02T07:47:28.445Z,1.37
2019-03-02T07:49:59.022Z,4.93
2019-03-02T07:52:29.513Z,2.53
2019-03-02T07:55:00.227Z,1.80
2019-03-02T07:57:30.815Z,1.23
2019-03-02T08:02:57.884Z,9.43
2019-03-02T08:05:28.753Z,5.80
2019-03-02T08:08:00.174Z,4.70
2019-03-02T08:10:30.700Z,6.73
2019-03-02T08:13:01.734Z,8.13
2019-03-02T08:15:32.511Z,6.77
2019-03-02T08:18:03.155Z,10.07
2019-03-02T08:20:33.717Z,6.83
2019-03-02T08:23:04.398Z,11.00
2019-03-02T08:25:34.885Z,10.00
2019-03-02T08:28:06.702Z,10.47
2019-03-02T08:30:38.052Z,8.63
2019-03-02T08:33:08.736Z,6.60
2019-03-02T08:35:40.113Z,9.17
2019-03-02T08:38:10.724Z,6.17
2019-03-02T08:40:41.376Z,7.60
2019-03-02T08:43:12.959Z,7.33
2019-03-02T08:45:44.260Z,8.87
2019-03-02T08:48:15.207Z,8.63
2019-03-02T08:50:45.825Z,9.63
2019-03-02T08:53:16.378Z,10.17
2019-03-02T08:55:46.869Z,10.63
2019-03-02T08:58:17.352Z,8.07
2019-03-02T09:00:47.967Z,11.37
2019-03-02T09:03:18.542Z,5.13
2019-03-02T09:05:51.778Z,5.47
2019-03-02T09:08:21.531Z,7.60
2019-03-02T09:10:51.996Z,8.33
2019-03-02T09:13:22.548Z,8.73
2019-03-02T09:15:53.066Z,8.77
2019-03-02T09:18:23.666Z,7.57
2019-03-02T09:20:54.528Z,10.47
2019-03-02T09:23:25.067Z,7.60
2019-03-02T09:25:55.789Z,7.03
2019-03-02T09:28:26.362Z,9.63
2019-03-02T09:30:58.855Z,15.00
2019-03-02T09:33:29.917Z,20.53
2019-03-02T09:36:00.604Z,15.47
2019-03-02T09:38:31.245Z,16.60
2019-03-02T09:41:01.844Z,12.57
2019-03-02T09:43:33.124Z,13.97
2019-03-02T09:46:03.743Z,21.87
2019-03-02T09:48:35.098Z,14.83
2019-03-02T09:51:05.823Z,11.37
2019-03-02T09:53:36.767Z,14.40
2019-03-02T09:56:07.669Z,14.60
2019-03-02T09:58:38.621Z,13.90
2019-03-02T10:01:09.363Z,12.30
2019-03-02T10:03:40.106Z,21.87
2019-03-02T10:06:10.672Z,24.77
2019-03-02T10:08:42.425Z,24.60
2019-03-02T10:11:13.101Z,20.60
2019-03-02T10:13:44.037Z,16.30
2019-03-02T10:16:16.000Z,15.43
2019-03-02T10:18:49.683Z,17.63
2019-03-02T10:21:19.892Z,18.40
2019-03-02T10:23:50.885Z,18.43
2019-03-02T10:26:21.600Z,14.17
2019-03-02T10:28:52.079Z,18.07
2019-03-02T10:31:22.700Z,17.57
2019-03-02T10:33:53.393Z,18.30
2019-03-02T10:36:25.794Z,15.40
2019-03-02T10:38:56.853Z,11.67
2019-03-02T10:41:28.554Z,18.63
2019-03-02T10:43:59.376Z,7.97
2019-03-02T10:46:30.128Z,14.60
2019-03-02T10:49:00.856Z,16.57
2019-03-02T10:54:14.116Z,16.57
2019-03-02T10:56:44.743Z,14.93
2019-03-02T10:59:15.645Z,13.60
2019-03-02T11:01:47.462Z,23.87
2019-03-02T11:04:41.039Z,17.67
2019-03-02T11:07:29.200Z,22.57
2019-03-02T11:10:18.687Z,11.43
2019-03-02T11:13:19.310Z,19.80
2019-03-02T11:16:08.497Z,14.93
2019-03-02T11:19:13.116Z,19.97
2019-03-02T11:22:02.349Z,18.03
2019-03-02T11:25:07.900Z,19.80
2019-03-02T11:28:00.449Z,19.37
2019-03-02T11:30:38.625Z,13.27
2019-03-02T11:33:17.712Z,17.50
2019-03-02T11:36:19.512Z,12.07
2019-03-02T11:39:07.421Z,13.60
2019-03-02T11:41:52.081Z,9.30
2019-03-02T11:44:42.948Z,14.93
2019-03-02T11:47:23.407Z,14.50
2019-03-02T11:53:01.272Z,17.40
2019-03-02T11:55:40.753Z,15.60
2019-03-02T11:58:48.743Z,12.47
2019-03-02T12:01:41.508Z,12.73
2019-03-02T12:04:37.317Z,12.53
2019-03-02T12:07:33.037Z,10.30
2019-03-02T12:10:22.812Z,15.97
2019-03-02T12:13:06.096Z,13.33
2019-03-02T12:15:45.938Z,7.10
2019-03-02T12:18:34.900Z,11.97
2019-03-02T12:21:17.970Z,8.40
2019-03-02T12:24:15.462Z,10.57
2019-03-02T12:27:08.612Z,11.07
2019-03-02T12:30:00.933Z,14.47
2019-03-02T12:32:48.499Z,11.07
2019-03-02T12:35:40.380Z,8.53
2019-03-02T12:38:36.768Z,6.43
2019-03-02T12:41:28.945Z,14.73
2019-03-02T12:44:21.350Z,8.10
2019-03-02T12:47:25.217Z,12.23
2019-03-02T12:50:32.999Z,7.87
2019-03-02T12:53:37.425Z,13.13
2019-03-02T12:56:29.075Z,11.10
2019-03-02T12:59:20.733Z,6.00
2019-03-02T13:02:14.087Z,7.67
2019-03-02T13:05:01.387Z,10.80
2019-03-02T13:07:50.806Z,9.30
2019-03-02T13:10:27.068Z,9.40
2019-03-02T13:13:09.324Z,5.27
2019-03-02T13:15:57.603Z,9.37
2019-03-02T13:18:46.981Z,8.60
2019-03-02T13:21:43.061Z,9.70
2019-03-02T13:24:28.492Z,13.00
2019-03-02T13:27:25.089Z,4.83
2019-03-02T13:30:17.677Z,5.30
2019-03-02T13:33:19.157Z,5.37
2019-03-02T13:36:09.065Z,9.97
2019-03-02T13:39:06.507Z,10.90
2019-03-02T13:41:56.379Z,7.97
2019-03-02T13:44:32.849Z,12.03
2019-03-02T13:47:28.304Z,8.33
2019-03-02T13:50:10.112Z,5.37
2019-03-02T13:52:51.736Z,10.97
2019-03-02T13:55:40.212Z,8.87
2019-03-02T13:58:30.776Z,9.50
2019-03-02T14:01:21.340Z,7.80
2019-03-02T14:03:59.701Z,13.23
2019-03-02T14:06:54.581Z,15.50
2019-03-02T14:09:43.860Z,7.90
2019-03-02T14:12:36.107Z,9.20
2019-03-02T14:15:21.724Z,7.70
2019-03-02T14:18:24.383Z,9.83
2019-03-02T14:21:09.578Z,8.13
2019-03-02T14:23:59.053Z,7.87
2019-03-02T14:26:40.592Z,12.97
2019-03-02T14:29:22.288Z,8.13
2019-03-02T14:32:10.214Z,17.77
2019-03-02T14:34:57.864Z,14.43
2019-03-02T14:37:33.180Z,15.40
2019-03-02T14:40:41.152Z,14.97
2019-03-02T14:43:49.633Z,17.33
2019-03-02T14:46:39.148Z,17.20
2019-03-02T14:49:29.454Z,17.23
2019-03-02T14:52:28.970Z,20.50
2019-03-02T14:55:22.525Z,22.20
2019-03-02T14:58:12.164Z,56.98
2019-03-02T15:01:04.690Z,19.73
2019-03-02T15:03:54.416Z,18.70
2019-03-02T15:06:46.960Z,17.50
2019-03-02T15:09:39.620Z,17.70
2019-03-02T15:12:38.560Z,15.33
2019-03-02T15:15:28.261Z,18.10
2019-03-02T15:18:22.502Z,20.87
2019-03-02T15:21:03.341Z,21.37
2019-03-02T15:23:44.752Z,20.83
2019-03-02T15:26:21.865Z,21.60
2019-03-02T15:29:10.042Z,19.05
2019-03-02T15:31:59.074Z,20.07
2019-03-02T15:34:58.928Z,17.37
2019-03-02T15:37:39.231Z,23.52
2019-03-02T15:40:17.220Z,26.87
2019-03-02T15:43:06.253Z,20.33
2019-03-02T15:46:08.204Z,18.47
2019-03-02T15:49:05.158Z,19.30
2019-03-02T15:51:57.890Z,15.73
2019-03-02T15:54:46.136Z,21.13
2019-03-02T15:57:24.041Z,17.90
2019-03-02T16:00:14.627Z,22.37
2019-03-02T16:03:07.190Z,22.50
2019-03-02T16:06:01.006Z,19.60
2019-03-02T16:08:53.568Z,20.23
2019-03-02T16:11:40.153Z,16.50
2019-03-02T16:14:25.389Z,19.73
2019-03-02T16:17:14.961Z,19.00
2019-03-02T16:20:06.361Z,13.60
2019-03-02T16:23:05.892Z,19.63
2019-03-02T16:25:54.305Z,16.07
2019-03-02T16:28:46.863Z,18.70
2019-03-02T16:31:46.115Z,18.53
2019-03-02T16:34:27.910Z,15.63
2019-03-02T16:37:17.014Z,18.80
2019-03-02T16:40:02.084Z,23.47
2019-03-02T16:42:55.483Z,23.47
2019-03-02T16:45:48.017Z,15.27
2019-03-02T16:48:37.960Z,20.33
2019-03-02T16:51:20.440Z,14.30
2019-03-02T16:54:09.085Z,24.13
2019-03-02T16:57:13.772Z,24.97
2019-03-02T17:00:05.274Z,16.07
2019-03-02T17:02:58.908Z,19.00
2019-03-02T17:08:35.339Z,22.43
2019-03-02T17:11:37.901Z,17.10
2019-03-02T17:14:26.127Z,14.60
2019-03-02T17:17:22.309Z,18.17
2019-03-02T17:20:01.081Z,19.53
2019-03-02T17:22:52.148Z,16.67
2019-03-02T17:25:50.100Z,22.77
2019-03-02T17:28:31.482Z,22.83
2019-03-02T17:31:20.545Z,16.50
2019-03-02T17:34:10.808Z,24.53
2019-03-02T17:37:12.028Z,25.87
2019-03-02T17:40:12.577Z,24.67
2019-03-02T17:43:03.672Z,24.27
2019-03-02T17:46:01.358Z,21.37
2019-03-02T17:48:40.612Z,28.00
2019-03-02T17:51:32.003Z,17.97
2019-03-02T17:54:21.209Z,23.10
2019-03-02T17:57:07.260Z,23.23
2019-03-02T17:59:55.512Z,25.37
2019-03-02T18:02:47.937Z,23.63
2019-03-02T18:05:44.074Z,22.13
2019-03-02T18:08:44.874Z,25.30
2019-03-02T18:11:34.420Z,21.33
2019-03-02T18:14:27.148Z,19.23
2019-03-02T18:17:29.060Z,27.23
2019-03-02T18:20:01.482Z,17.23
2019-03-02T18:22:33.215Z,22.57
2019-03-02T18:25:03.771Z,28.60
2019-03-02T18:27:37.290Z,31.13
2019-03-02T18:30:09.068Z,29.23
2019-03-02T18:32:39.778Z,23.87
2019-03-02T18:35:10.440Z,26.00
2019-03-02T18:37:42.678Z,19.10
2019-03-02T18:40:13.616Z,24.70
2019-03-02T18:42:44.536Z,23.00
2019-03-02T18:45:15.888Z,18.53
2019-03-02T18:47:46.924Z,28.27
2019-03-02T18:50:39.416Z,24.77
2019-03-02T18:53:10.108Z,25.13
2019-03-02T18:55:40.911Z,24.03
2019-03-02T18:58:12.619Z,22.57
2019-03-02T19:00:48.126Z,25.30
2019-03-02T19:03:21.021Z,27.07
2019-03-02T19:05:51.656Z,21.03
2019-03-02T19:08:22.513Z,22.33
2019-03-02T19:10:53.396Z,21.27
2019-03-02T19:13:24.005Z,25.07
2019-03-02T19:15:54.676Z,17.97
2019-03-02T19:18:25.383Z,28.53
2019-03-02T19:20:58.170Z,30.13
2019-03-02T19:23:28.374Z,20.60
2019-03-02T19:25:59.313Z,24.83
2019-03-02T19:28:30.234Z,14.73
2019-03-02T19:31:01.140Z,24.00
2019-03-02T19:33:31.941Z,17.70
2019-03-02T19:36:04.940Z,19.73
2019-03-02T19:38:35.858Z,27.50
2019-03-02T19:41:06.727Z,19.40
2019-03-02T19:43:37.481Z,19.10
2019-03-02T19:46:08.471Z,18.23
2019-03-02T19:48:39.158Z,22.67
2019-03-02T19:51:10.156Z,19.53
2019-03-02T19:53:40.824Z,18.60
2019-03-02T19:56:11.731Z,18.93
2019-03-02T19:58:42.302Z,11.40
2019-03-02T20:01:13.075Z,24.00
2019-03-02T20:03:43.792Z,15.13
2019-03-02T20:06:14.436Z,9.93
2019-03-02T20:08:45.361Z,11.43
2019-03-02T20:11:15.993Z,12.97
2019-03-02T20:13:47.801Z,17.30
2019-03-02T20:16:18.647Z,16.07
2019-03-02T20:21:31.600Z,12.10
2019-03-02T20:24:02.185Z,14.03
2019-03-02T20:26:32.888Z,11.27
2019-03-02T20:29:03.662Z,12.17
2019-03-02T20:31:34.408Z,13.27
2019-03-02T20:34:05.027Z,12.70
2019-03-02T20:36:35.677Z,8.90
2019-03-02T20:39:08.232Z,7.80
2019-03-02T20:41:39.948Z,13.37
2019-03-02T20:46:53.006Z,11.23
2019-03-02T20:49:24.109Z,11.13
2019-03-02T20:51:54.679Z,12.33
2019-03-02T20:54:25.413Z,11.30
2019-03-02T20:56:56.000Z,10.17
2019-03-02T20:59:27.325Z,11.77
2019-03-02T21:01:58.560Z,10.30
2019-03-02T21:04:29.437Z,8.37
2019-03-02T21:07:00.820Z,8.03
2019-03-02T21:09:32.507Z,7.17
2019-03-02T21:12:04.009Z,6.90
2019-03-02T21:14:35.244Z,7.47
2019-03-02T21:17:06.277Z,5.57
2019-03-02T21:19:36.994Z,5.20
2019-03-02T21:22:08.215Z,4.70
2019-03-02T21:24:39.329Z,2.50
2019-03-02T21:29:52.952Z,4.97
2019-03-02T21:32:23.752Z,3.57
2019-03-02T21:34:54.681Z,8.13
2019-03-02T21:37:25.459Z,5.00
2019-03-02T21:42:46.351Z,6.53
2019-03-02T21:45:18.463Z,6.60
2019-03-02T21:47:50.684Z,9.30
2019-03-02T21:50:24.271Z,8.07
2019-03-02T21:52:55.595Z,10.63
2019-03-02T21:55:26.866Z,9.53
2019-03-02T21:57:58.170Z,10.33
2019-03-02T22:00:29.416Z,10.63
2019-03-02T22:03:01.471Z,8.77
2019-03-02T22:05:33.334Z,16.63
2019-03-02T22:08:04.140Z,6.97
2019-03-02T22:10:42.421Z,8.63
2019-03-02T22:13:13.637Z,11.50
2019-03-02T22:15:44.757Z,9.87
2019-03-02T22:18:15.613Z,8.27
2019-03-02T22:20:47.283Z,10.47
2019-03-02T22:23:22.977Z,12.83
2019-03-02T22:25:53.817Z,17.90
2019-03-02T22:28:25.034Z,16.73
2019-03-02T22:30:56.330Z,6.40
2019-03-02T22:33:27.480Z,15.20
2019-03-02T22:35:58.626Z,13.97
2019-03-02T22:38:31.980Z,15.20
2019-03-02T22:41:02.730Z,13.80
2019-03-02T22:43:34.890Z,11.00
2019-03-02T22:46:06.702Z,15.87
2019-03-02T22:48:37.420Z,13.27
2019-03-02T22:51:08.184Z,21.80
2019-03-02T22:53:38.850Z,18.47
2019-03-02T22:56:09.421Z,14.40
2019-03-02T22:58:39.171Z,15.77
2019-03-02T23:01:54.498Z,15.27
2019-03-02T23:04:25.088Z,19.37
2019-03-02T23:06:55.673Z,15.97
2019-03-02T23:09:26.291Z,17.63
2019-03-02T23:11:57.027Z,15.00
2019-03-02T23:14:27.629Z,19.70
2019-03-02T23:16:58.221Z,21.03
2019-03-02T23:19:28.889Z,16.80
2019-03-02T23:21:59.553Z,12.10
2019-03-02T23:24:30.113Z,15.83
2019-03-02T23:27:01.104Z,11.33
2019-03-02T23:29:31.738Z,16.47
2019-03-02T23:32:03.375Z,13.20
2019-03-02T23:34:37.153Z,13.90
2019-03-02T23:37:06.484Z,13.77
2019-03-02T23:39:37.099Z,8.60
2019-03-02T23:42:07.880Z,16.73
2019-03-02T23:44:38.506Z,13.90
2019-03-02T23:47:09.167Z,11.20
2019-03-02T23:49:39.743Z,15.30
2019-03-02T23:52:10.332Z,6.47
2019-03-02T23:54:41.238Z,9.33
2019-03-02T23:57:12.030Z,12.37
2019-03-02T23:59:42.705Z,9.83
